sensor_id;sensor_type;location;lat;lon;timestamp;pressure;altitude;pressure_sealevel;temperature;humidity
67397;BME280;57728;50.448;18.824;2022-11-04T00:01:08;97291.78;;;10.01;58.99
67397;BME280;57728;50.448;18.824;2022-11-04T00:03:09;97288.88;;;9.97;58.81
67397;BME280;57728;50.448;18.824;2022-11-04T00:05:10;97289.66;;;9.98;59.42
67397;BME280;57728;50.448;18.824;2022-11-04T00:07:12;97278.91;;;9.98;59.07
67397;BME280;57728;50.448;18.824;2022-11-04T00:09:32;97288.06;;;9.97;59.48
67397;BME280;57728;50.448;18.824;2022-11-04T00:11:34;97277.88;;;9.94;59.31
67397;BME280;57728;50.448;18.824;2022-11-04T00:13:56;97277.38;;;9.92;59.38
67397;BME280;57728;50.448;18.824;2022-11-04T00:16:00;97273.09;;;9.91;59.32
67397;BME280;57728;50.448;18.824;2022-11-04T00:18:20;97273.09;;;9.91;59.01
67397;BME280;57728;50.448;18.824;2022-11-04T00:20:22;97290.53;;;9.93;59.59
67397;BME280;57728;50.448;18.824;2022-11-04T00:22:47;97278.69;;;9.94;59.05
67397;BME280;57728;50.448;18.824;2022-11-04T00:25:08;97274.09;;;9.95;59.40
67397;BME280;57728;50.448;18.824;2022-11-04T00:27:29;97277.09;;;9.93;59.07
67397;BME280;57728;50.448;18.824;2022-11-04T00:29:49;97273.59;;;9.93;59.26
67397;BME280;57728;50.448;18.824;2022-11-04T00:31:50;97272.50;;;9.94;59.35
67397;BME280;57728;50.448;18.824;2022-11-04T00:34:11;97271.19;;;9.91;59.30
67397;BME280;57728;50.448;18.824;2022-11-04T00:36:12;97268.81;;;9.90;59.47
67397;BME280;57728;50.448;18.824;2022-11-04T00:38:13;97270.69;;;9.89;59.55
67397;BME280;57728;50.448;18.824;2022-11-04T00:40:15;97270.69;;;9.89;59.59
67397;BME280;57728;50.448;18.824;2022-11-04T00:42:17;97268.50;;;9.91;59.75
67397;BME280;57728;50.448;18.824;2022-11-04T00:44:18;97270.41;;;9.91;59.69
67397;BME280;57728;50.448;18.824;2022-11-04T00:46:20;97260.44;;;9.91;59.72
67397;BME280;57728;50.448;18.824;2022-11-04T00:48:21;97255.34;;;9.90;59.73
67397;BME280;57728;50.448;18.824;2022-11-04T00:50:22;97260.44;;;9.91;59.46
67397;BME280;57728;50.448;18.824;2022-11-04T00:52:24;97258.25;;;9.93;59.28
67397;BME280;57728;50.448;18.824;2022-11-04T00:54:25;97258.25;;;9.93;59.63
67397;BME280;57728;50.448;18.824;2022-11-04T00:56:26;97255.56;;;9.93;59.67
67397;BME280;57728;50.448;18.824;2022-11-04T00:58:28;97246.13;;;9.96;59.63
67397;BME280;57728;50.448;18.824;2022-11-04T01:00:29;97252.50;;;10.00;59.83
67397;BME280;57728;50.448;18.824;2022-11-04T01:02:31;97237.16;;;10.00;59.37
67397;BME280;57728;50.448;18.824;2022-11-04T01:04:32;97238.44;;;10.03;59.31
67397;BME280;57728;50.448;18.824;2022-11-04T01:06:34;97238.16;;;10.04;59.30
67397;BME280;57728;50.448;18.824;2022-11-04T01:08:35;97243.53;;;10.04;59.21
67397;BME280;57728;50.448;18.824;2022-11-04T01:10:37;97235.47;;;10.04;59.15
67397;BME280;57728;50.448;18.824;2022-11-04T01:12:44;97231.16;;;10.03;59.56
67397;BME280;57728;50.448;18.824;2022-11-04T01:14:45;97224.69;;;10.04;59.20
67397;BME280;57728;50.448;18.824;2022-11-04T01:16:50;97224.69;;;10.04;59.32
67397;BME280;57728;50.448;18.824;2022-11-04T01:18:51;97227.09;;;10.06;59.58
67397;BME280;57728;50.448;18.824;2022-11-04T01:20:53;97224.41;;;10.06;58.98
67397;BME280;57728;50.448;18.824;2022-11-04T01:22:55;97218.22;;;10.05;59.36
67397;BME280;57728;50.448;18.824;2022-11-04T01:24:56;97213.41;;;10.02;58.96
67397;BME280;57728;50.448;18.824;2022-11-04T01:26:57;97217.41;;;10.05;58.68
67397;BME280;57728;50.448;18.824;2022-11-04T01:28:59;97207.75;;;10.04;59.26
67397;BME280;57728;50.448;18.824;2022-11-04T01:31:15;97221.22;;;10.04;59.28
67397;BME280;57728;50.448;18.824;2022-11-04T01:33:22;97210.94;;;10.06;58.99
67397;BME280;57728;50.448;18.824;2022-11-04T01:35:25;97211.72;;;10.06;59.16
67397;BME280;57728;50.448;18.824;2022-11-04T01:37:26;97212.25;;;10.08;59.03
67397;BME280;57728;50.448;18.824;2022-11-04T01:39:27;97204.66;;;10.10;58.87
67397;BME280;57728;50.448;18.824;2022-11-04T01:41:32;97205.19;;;10.13;58.71
67397;BME280;57728;50.448;18.824;2022-11-04T01:45:58;97202.88;;;10.20;58.60
67397;BME280;57728;50.448;18.824;2022-11-04T01:48:13;97183.53;;;10.18;58.85
67397;BME280;57728;50.448;18.824;2022-11-04T01:50:27;97189.41;;;10.20;58.28
67397;BME280;57728;50.448;18.824;2022-11-04T01:52:39;97178.63;;;10.20;58.81
67397;BME280;57728;50.448;18.824;2022-11-04T01:54:48;97178.94;;;10.18;58.50
67397;BME280;57728;50.448;18.824;2022-11-04T01:56:54;97170.38;;;10.16;58.17
67397;BME280;57728;50.448;18.824;2022-11-04T01:59:02;97174.66;;;10.17;58.18
67397;BME280;57728;50.448;18.824;2022-11-04T02:01:10;97169.28;;;10.17;58.37
67397;BME280;57728;50.448;18.824;2022-11-04T02:03:20;97169.78;;;10.19;58.43
67397;BME280;57728;50.448;18.824;2022-11-04T02:05:28;97167.59;;;10.21;58.06
67397;BME280;57728;50.448;18.824;2022-11-04T02:07:31;97171.28;;;10.25;58.39
67397;BME280;57728;50.448;18.824;2022-11-04T02:09:36;97162.91;;;10.27;57.82
67397;BME280;57728;50.448;18.824;2022-11-04T02:11:39;97153.75;;;10.28;57.33
67397;BME280;57728;50.448;18.824;2022-11-04T02:14:01;97145.66;;;10.28;57.24
67397;BME280;57728;50.448;18.824;2022-11-04T02:23:38;97140.44;;;10.31;57.30
67397;BME280;57728;50.448;18.824;2022-11-04T02:36:19;97118.53;;;10.24;57.28
67397;BME280;57728;50.448;18.824;2022-11-04T02:38:53;97113.16;;;10.24;57.41
67397;BME280;57728;50.448;18.824;2022-11-04T02:41:14;97114.75;;;10.25;57.07
67397;BME280;57728;50.448;18.824;2022-11-04T02:46:33;97123.09;;;10.24;57.07
67397;BME280;57728;50.448;18.824;2022-11-04T02:48:48;97121.53;;;10.23;57.22
67397;BME280;57728;50.448;18.824;2022-11-04T02:51:26;97120.13;;;10.25;57.31
67397;BME280;57728;50.448;18.824;2022-11-04T02:56:27;97121.72;;;10.26;57.04
67397;BME280;57728;50.448;18.824;2022-11-04T02:58:36;97119.53;;;10.28;57.37
67397;BME280;57728;50.448;18.824;2022-11-04T03:00:47;97126.00;;;10.27;57.22
67397;BME280;57728;50.448;18.824;2022-11-04T03:02:59;97119.34;;;10.25;56.68
67397;BME280;57728;50.448;18.824;2022-11-04T03:05:08;97124.41;;;10.26;57.24
67397;BME280;57728;50.448;18.824;2022-11-04T03:07:14;97119.03;;;10.26;56.96
67397;BME280;57728;50.448;18.824;2022-11-04T03:09:27;97117.91;;;10.27;57.10
67397;BME280;57728;50.448;18.824;2022-11-04T03:11:30;97121.44;;;10.28;56.98
67397;BME280;57728;50.448;18.824;2022-11-04T03:13:42;97114.16;;;10.28;57.28
67397;BME280;57728;50.448;18.824;2022-11-04T03:15:56;97115.22;;;10.27;57.46
67397;BME280;57728;50.448;18.824;2022-11-04T03:18:14;97115.53;;;10.26;57.21
67397;BME280;57728;50.448;18.824;2022-11-04T03:20:25;97109.66;;;10.24;57.25
67397;BME280;57728;50.448;18.824;2022-11-04T03:22:33;97109.97;;;10.22;57.65
67397;BME280;57728;50.448;18.824;2022-11-04T03:24:38;97104.69;;;10.17;57.46
67397;BME280;57728;50.448;18.824;2022-11-04T03:29:36;97103.59;;;10.18;57.88
67397;BME280;57728;50.448;18.824;2022-11-04T03:32:35;97099.00;;;10.19;57.69
67397;BME280;57728;50.448;18.824;2022-11-04T03:34:22;97097.41;;;10.18;57.55
67397;BME280;57728;50.448;18.824;2022-11-04T03:36:24;97092.63;;;10.15;57.78
67397;BME280;57728;50.448;18.824;2022-11-04T03:38:28;97087.03;;;10.11;57.86
67397;BME280;57728;50.448;18.824;2022-11-04T03:40:30;97087.81;;;10.11;57.78
67397;BME280;57728;50.448;18.824;2022-11-04T03:42:37;97088.94;;;10.10;57.65
67397;BME280;57728;50.448;18.824;2022-11-04T03:44:53;97077.69;;;10.08;58.04
67397;BME280;57728;50.448;18.824;2022-11-04T03:46:57;97074.69;;;10.10;57.90
67397;BME280;57728;50.448;18.824;2022-11-04T03:49:00;97065.00;;;10.09;57.95
67397;BME280;57728;50.448;18.824;2022-11-04T03:51:02;97066.72;;;10.05;58.06
67397;BME280;57728;50.448;18.824;2022-11-04T03:53:04;97066.81;;;10.00;57.92
67397;BME280;57728;50.448;18.824;2022-11-04T03:55:08;97065.00;;;9.95;58.02
67397;BME280;57728;50.448;18.824;2022-11-04T04:02:21;97068.91;;;9.89;58.29
67397;BME280;57728;50.448;18.824;2022-11-04T04:04:33;97067.31;;;9.88;57.83
67397;BME280;57728;50.448;18.824;2022-11-04T04:06:42;97060.13;;;9.83;57.80
67397;BME280;57728;50.448;18.824;2022-11-04T04:08:54;97053.94;;;9.83;58.21
67397;BME280;57728;50.448;18.824;2022-11-04T04:16:44;97058.66;;;9.77;58.37
67397;BME280;57728;50.448;18.824;2022-11-04T04:19:02;97054.84;;;9.78;58.44
67397;BME280;57728;50.448;18.824;2022-11-04T04:21:16;97051.38;;;9.78;58.40
67397;BME280;57728;50.448;18.824;2022-11-04T04:23:26;97058.66;;;9.77;58.20
67397;BME280;57728;50.448;18.824;2022-11-04T04:25:51;97050.06;;;9.75;58.64
67397;BME280;57728;50.448;18.824;2022-11-04T04:28:18;97049.38;;;9.70;58.63
67397;BME280;57728;50.448;18.824;2022-11-04T04:30:21;97047.59;;;9.65;58.98
67397;BME280;57728;50.448;18.824;2022-11-04T04:32:26;97033.94;;;9.61;58.89
67397;BME280;57728;50.448;18.824;2022-11-04T04:34:32;97035.63;;;9.57;59.23
67397;BME280;57728;50.448;18.824;2022-11-04T04:37:01;97034.63;;;9.53;59.10
67397;BME280;57728;50.448;18.824;2022-11-04T04:39:06;97044.38;;;9.49;59.05
67397;BME280;57728;50.448;18.824;2022-11-04T04:41:31;97040.09;;;9.48;59.59
67397;BME280;57728;50.448;18.824;2022-11-04T04:43:50;97033.72;;;9.44;59.39
67397;BME280;57728;50.448;18.824;2022-11-04T04:46:11;97025.16;;;9.42;59.96
67397;BME280;57728;50.448;18.824;2022-11-04T04:48:15;97022.75;;;9.41;59.57
67397;BME280;57728;50.448;18.824;2022-11-04T04:50:19;97012.13;;;9.35;59.59
67397;BME280;57728;50.448;18.824;2022-11-04T04:52:30;97013.81;;;9.31;59.84
67397;BME280;57728;50.448;18.824;2022-11-04T04:54:36;97019.97;;;9.32;60.15
67397;BME280;57728;50.448;18.824;2022-11-04T04:56:37;97013.28;;;9.29;60.31
67397;BME280;57728;50.448;18.824;2022-11-04T04:58:38;97018.66;;;9.29;60.11
67397;BME280;57728;50.448;18.824;2022-11-04T05:00:39;97013.59;;;9.28;59.79
67397;BME280;57728;50.448;18.824;2022-11-04T05:02:42;97024.34;;;9.28;59.90
67397;BME280;57728;50.448;18.824;2022-11-04T05:04:43;97020.56;;;9.29;60.18
67397;BME280;57728;50.448;18.824;2022-11-04T05:06:45;97019.47;;;9.30;59.89
67397;BME280;57728;50.448;18.824;2022-11-04T05:08:46;97012.97;;;9.31;59.93
67397;BME280;57728;50.448;18.824;2022-11-04T05:10:47;97012.69;;;9.32;60.21
67397;BME280;57728;50.448;18.824;2022-11-04T05:12:49;97016.78;;;9.30;59.80
67397;BME280;57728;50.448;18.824;2022-11-04T05:15:09;97010.59;;;9.29;59.88
67397;BME280;57728;50.448;18.824;2022-11-04T05:17:10;97006.31;;;9.28;60.01
67397;BME280;57728;50.448;18.824;2022-11-04T05:19:13;97006.91;;;9.25;60.36
67397;BME280;57728;50.448;18.824;2022-11-04T05:21:14;97012.59;;;9.24;60.26
67397;BME280;57728;50.448;18.824;2022-11-04T05:23:16;97019.34;;;9.21;60.56
67397;BME280;57728;50.448;18.824;2022-11-04T05:25:18;97015.34;;;9.19;60.15
67397;BME280;57728;50.448;18.824;2022-11-04T05:27:19;97004.91;;;9.17;60.61
67397;BME280;57728;50.448;18.824;2022-11-04T05:29:20;97005.22;;;9.16;60.75
67397;BME280;57728;50.448;18.824;2022-11-04T05:31:22;96999.03;;;9.15;60.45
67397;BME280;57728;50.448;18.824;2022-11-04T05:33:23;96990.47;;;9.13;60.38
67397;BME280;57728;50.448;18.824;2022-11-04T05:35:25;96997.22;;;9.10;60.58
67397;BME280;57728;50.448;18.824;2022-11-04T05:37:27;96992.94;;;9.09;60.88
67397;BME280;57728;50.448;18.824;2022-11-04T05:39:28;96997.22;;;9.10;60.69
67397;BME280;57728;50.448;18.824;2022-11-04T05:41:29;96989.97;;;9.11;60.85
67397;BME280;57728;50.448;18.824;2022-11-04T05:43:32;96988.88;;;9.12;60.94
67397;BME280;57728;50.448;18.824;2022-11-04T05:45:34;96993.94;;;9.13;60.66
67397;BME280;57728;50.448;18.824;2022-11-04T05:47:35;96999.84;;;9.16;60.65
67397;BME280;57728;50.448;18.824;2022-11-04T05:49:36;97003.00;;;9.18;60.39
67397;BME280;57728;50.448;18.824;2022-11-04T05:51:38;96997.34;;;9.19;60.91
67397;BME280;57728;50.448;18.824;2022-11-04T05:53:40;97009.09;;;9.23;60.80
67397;BME280;57728;50.448;18.824;2022-11-04T05:55:43;97002.34;;;9.26;60.59
67397;BME280;57728;50.448;18.824;2022-11-04T05:57:44;97000.94;;;9.28;60.70
67397;BME280;57728;50.448;18.824;2022-11-04T05:59:45;97001.94;;;9.32;60.40
67397;BME280;57728;50.448;18.824;2022-11-04T06:01:47;96991.69;;;9.34;60.08
67397;BME280;57728;50.448;18.824;2022-11-04T06:03:50;96990.59;;;9.35;60.30
67397;BME280;57728;50.448;18.824;2022-11-04T06:05:52;96996.00;;;9.35;60.34
67397;BME280;57728;50.448;18.824;2022-11-04T06:07:55;96994.38;;;9.34;60.16
67397;BME280;57728;50.448;18.824;2022-11-04T06:09:56;96980.72;;;9.31;60.51
67397;BME280;57728;50.448;18.824;2022-11-04T06:11:57;96995.78;;;9.32;60.41
67397;BME280;57728;50.448;18.824;2022-11-04T06:14:00;96986.63;;;9.33;60.25
67397;BME280;57728;50.448;18.824;2022-11-04T06:16:01;96990.88;;;9.34;60.38
67397;BME280;57728;50.448;18.824;2022-11-04T06:18:02;96995.47;;;9.33;60.12
67397;BME280;57728;50.448;18.824;2022-11-04T06:20:05;97003.53;;;9.33;59.91
67397;BME280;57728;50.448;18.824;2022-11-04T06:22:15;97004.34;;;9.34;59.67
67397;BME280;57728;50.448;18.824;2022-11-04T06:24:18;97008.59;;;9.35;59.47
67397;BME280;57728;50.448;18.824;2022-11-04T06:26:21;97012.59;;;9.37;59.43
67397;BME280;57728;50.448;18.824;2022-11-04T06:28:23;97012.50;;;9.43;59.34
67397;BME280;57728;50.448;18.824;2022-11-04T06:30:24;97016.69;;;9.49;59.11
67397;BME280;57728;50.448;18.824;2022-11-04T06:32:26;97015.28;;;9.51;58.95
67397;BME280;57728;50.448;18.824;2022-11-04T06:34:27;97017.38;;;9.54;59.06
67397;BME280;57728;50.448;18.824;2022-11-04T06:36:28;97019.50;;;9.57;58.82
67397;BME280;57728;50.448;18.824;2022-11-04T06:38:32;97025.66;;;9.58;58.88
67397;BME280;57728;50.448;18.824;2022-11-04T06:40:34;97025.66;;;9.58;58.93
67397;BME280;57728;50.448;18.824;2022-11-04T06:42:35;97027.25;;;9.59;58.28
67397;BME280;57728;50.448;18.824;2022-11-04T06:44:37;97023.47;;;9.60;58.63
67397;BME280;57728;50.448;18.824;2022-11-04T06:46:41;97022.66;;;9.59;58.17
67397;BME280;57728;50.448;18.824;2022-11-04T06:48:43;97032.84;;;9.62;58.70
67397;BME280;57728;50.448;18.824;2022-11-04T06:50:45;97027.16;;;9.64;58.83
67397;BME280;57728;50.448;18.824;2022-11-04T06:52:46;97026.06;;;9.65;58.28
67397;BME280;57728;50.448;18.824;2022-11-04T06:54:47;97030.34;;;9.66;58.39
67397;BME280;57728;50.448;18.824;2022-11-04T06:56:49;97028.75;;;9.65;58.55
67397;BME280;57728;50.448;18.824;2022-11-04T06:58:51;97030.06;;;9.68;58.50
67397;BME280;57728;50.448;18.824;2022-11-04T07:00:54;97032.44;;;9.69;58.08
67397;BME280;57728;50.448;18.824;2022-11-04T07:02:56;97036.13;;;9.73;58.52
67397;BME280;57728;50.448;18.824;2022-11-04T07:04:57;97029.44;;;9.71;58.31
67397;BME280;57728;50.448;18.824;2022-11-04T07:06:58;97029.44;;;9.71;58.46
67397;BME280;57728;50.448;18.824;2022-11-04T07:09:01;97031.34;;;9.70;58.71
67397;BME280;57728;50.448;18.824;2022-11-04T07:11:02;97028.84;;;9.74;58.88
67397;BME280;57728;50.448;18.824;2022-11-04T07:13:04;97033.91;;;9.75;58.68
67397;BME280;57728;50.448;18.824;2022-11-04T07:15:06;97033.63;;;9.77;58.30
67397;BME280;57728;50.448;18.824;2022-11-04T07:17:07;97028.53;;;9.75;58.38
67397;BME280;57728;50.448;18.824;2022-11-04T07:19:10;97025.38;;;9.73;58.52
67397;BME280;57728;50.448;18.824;2022-11-04T07:21:12;97024.25;;;9.74;58.86
67397;BME280;57728;50.448;18.824;2022-11-04T07:23:13;97025.84;;;9.75;58.33
67397;BME280;57728;50.448;18.824;2022-11-04T07:25:14;97021.78;;;9.78;58.25
67397;BME280;57728;50.448;18.824;2022-11-04T07:27:16;97019.59;;;9.80;58.67
67397;BME280;57728;50.448;18.824;2022-11-04T07:29:18;97018.19;;;9.82;58.59
67397;BME280;57728;50.448;18.824;2022-11-04T07:31:19;97015.22;;;9.84;58.46
67397;BME280;57728;50.448;18.824;2022-11-04T07:33:23;97015.69;;;9.86;58.01
67397;BME280;57728;50.448;18.824;2022-11-04T07:35:24;97013.19;;;9.90;58.33
67397;BME280;57728;50.448;18.824;2022-11-04T07:37:26;97017.19;;;9.92;58.02
67397;BME280;57728;50.448;18.824;2022-11-04T07:39:28;97012.81;;;9.96;58.19
67397;BME280;57728;50.448;18.824;2022-11-04T07:41:29;97013.00;;;10.00;57.79
67397;BME280;57728;50.448;18.824;2022-11-04T07:43:30;97018.06;;;10.01;57.75
67397;BME280;57728;50.448;18.824;2022-11-04T07:45:32;97015.06;;;10.03;57.41
67397;BME280;57728;50.448;18.824;2022-11-04T07:47:34;97016.19;;;10.02;57.58
67397;BME280;57728;50.448;18.824;2022-11-04T07:49:35;97005.09;;;10.03;57.21
67397;BME280;57728;50.448;18.824;2022-11-04T07:51:37;96998.66;;;10.04;57.55
67397;BME280;57728;50.448;18.824;2022-11-04T07:53:38;96994.06;;;10.05;57.16
67397;BME280;57728;50.448;18.824;2022-11-04T07:55:39;96997.72;;;10.09;57.25
67397;BME280;57728;50.448;18.824;2022-11-04T07:57:42;96987.97;;;10.13;56.66
67397;BME280;57728;50.448;18.824;2022-11-04T07:59:43;96998.13;;;10.16;56.48
67397;BME280;57728;50.448;18.824;2022-11-04T08:01:44;96994.53;;;10.21;56.45
67397;BME280;57728;50.448;18.824;2022-11-04T08:03:47;96998.47;;;10.23;56.27
67397;BME280;57728;50.448;18.824;2022-11-04T08:05:56;97001.88;;;10.29;56.37
67397;BME280;57728;50.448;18.824;2022-11-04T08:07:58;96994.81;;;10.33;55.59
67397;BME280;57728;50.448;18.824;2022-11-04T08:10:01;97002.28;;;10.36;55.78
67397;BME280;57728;50.448;18.824;2022-11-04T08:12:03;96996.00;;;10.41;55.81
67397;BME280;57728;50.448;18.824;2022-11-04T08:14:05;96993.19;;;10.46;55.42
67397;BME280;57728;50.448;18.824;2022-11-04T08:16:11;96998.75;;;10.49;55.81
67397;BME280;57728;50.448;18.824;2022-11-04T08:18:15;96996.25;;;10.53;55.55
67397;BME280;57728;50.448;18.824;2022-11-04T08:20:16;96992.44;;;10.54;55.63
67397;BME280;57728;50.448;18.824;2022-11-04T08:22:18;96996.44;;;10.56;55.58
67397;BME280;57728;50.448;18.824;2022-11-04T08:24:19;96993.56;;;10.53;55.89
67397;BME280;57728;50.448;18.824;2022-11-04T08:26:21;96988.03;;;10.58;55.89
67397;BME280;57728;50.448;18.824;2022-11-04T08:28:25;96985.34;;;10.58;55.58
67397;BME280;57728;50.448;18.824;2022-11-04T08:30:27;96983.16;;;10.60;55.49
67397;BME280;57728;50.448;18.824;2022-11-04T08:32:29;96988.22;;;10.62;56.05
67397;BME280;57728;50.448;18.824;2022-11-04T08:34:33;96980.34;;;10.65;55.95
67397;BME280;57728;50.448;18.824;2022-11-04T08:36:37;96985.13;;;10.68;55.43
67397;BME280;57728;50.448;18.824;2022-11-04T08:38:41;96982.41;;;10.68;55.75
67397;BME280;57728;50.448;18.824;2022-11-04T08:40:43;96985.91;;;10.69;55.60
67397;BME280;57728;50.448;18.824;2022-11-04T08:42:45;96980.22;;;10.70;55.94
67397;BME280;57728;50.448;18.824;2022-11-04T08:44:50;96983.88;;;10.74;55.91
67397;BME280;57728;50.448;18.824;2022-11-04T08:46:52;96969.81;;;10.77;55.80
67397;BME280;57728;50.448;18.824;2022-11-04T08:48:53;96968.25;;;10.85;55.80
67397;BME280;57728;50.448;18.824;2022-11-04T08:50:56;96965.25;;;10.87;55.36
67397;BME280;57728;50.448;18.824;2022-11-04T08:52:59;96962.41;;;10.92;55.38
67397;BME280;57728;50.448;18.824;2022-11-04T08:55:00;96971.66;;;10.99;55.49
67397;BME280;57728;50.448;18.824;2022-11-04T08:57:02;96961.56;;;11.05;55.45
67397;BME280;57728;50.448;18.824;2022-11-04T08:59:04;96957.16;;;11.09;55.05
67397;BME280;57728;50.448;18.824;2022-11-04T09:01:06;96958.41;;;11.12;55.09
67397;BME280;57728;50.448;18.824;2022-11-04T09:03:08;96964.78;;;11.16;54.95
67397;BME280;57728;50.448;18.824;2022-11-04T09:05:11;96952.75;;;11.22;55.24
67397;BME280;57728;50.448;18.824;2022-11-04T09:07:13;96961.63;;;11.22;54.68
67397;BME280;57728;50.448;18.824;2022-11-04T09:09:16;96960.53;;;11.23;54.64
67397;BME280;57728;50.448;18.824;2022-11-04T09:11:18;96948.31;;;11.17;54.74
67397;BME280;57728;50.448;18.824;2022-11-04T09:13:19;96946.56;;;11.21;54.73
67397;BME280;57728;50.448;18.824;2022-11-04T09:15:22;96952.44;;;11.23;55.01
67397;BME280;57728;50.448;18.824;2022-11-04T09:17:23;96952.44;;;11.23;54.90
67397;BME280;57728;50.448;18.824;2022-11-04T09:19:25;96949.13;;;11.26;55.16
67397;BME280;57728;50.448;18.824;2022-11-04T09:21:27;96959.28;;;11.29;55.15
67397;BME280;57728;50.448;18.824;2022-11-04T09:23:29;96955.66;;;11.34;54.89
67397;BME280;57728;50.448;18.824;2022-11-04T09:25:31;96949.16;;;11.35;54.46
67397;BME280;57728;50.448;18.824;2022-11-04T09:27:32;96953.94;;;11.38;54.80
67397;BME280;57728;50.448;18.824;2022-11-04T09:29:35;96953.31;;;11.41;54.96
67397;BME280;57728;50.448;18.824;2022-11-04T09:31:37;96947.91;;;11.41;55.08
67397;BME280;57728;50.448;18.824;2022-11-04T09:33:38;96946.47;;;11.44;54.87
67397;BME280;57728;50.448;18.824;2022-11-04T09:35:41;96946.97;;;11.46;55.19
67397;BME280;57728;50.448;18.824;2022-11-04T09:37:42;96948.25;;;11.48;54.28
67397;BME280;57728;50.448;18.824;2022-11-04T09:39:43;96943.66;;;11.49;54.33
67397;BME280;57728;50.448;18.824;2022-11-04T09:41:54;96944.63;;;11.53;54.37
67397;BME280;57728;50.448;18.824;2022-11-04T09:46:19;96941.75;;;11.49;55.00
67397;BME280;57728;50.448;18.824;2022-11-04T09:48:55;96945.25;;;11.50;55.06
67397;BME280;57728;50.448;18.824;2022-11-04T09:51:01;96941.59;;;11.54;54.89
67397;BME280;57728;50.448;18.824;2022-11-04T09:53:13;96945.28;;;11.58;55.03
67397;BME280;57728;50.448;18.824;2022-11-04T09:55:28;96948.13;;;11.62;55.16
67397;BME280;57728;50.448;18.824;2022-11-04T09:57:34;96940.06;;;11.71;54.86
67397;BME280;57728;50.448;18.824;2022-11-04T09:59:36;96943.94;;;11.78;54.95
67397;BME280;57728;50.448;18.824;2022-11-04T10:01:42;96940.78;;;11.85;54.58
67397;BME280;57728;50.448;18.824;2022-11-04T10:08:46;96939.50;;;12.00;54.59
67397;BME280;57728;50.448;18.824;2022-11-04T10:11:13;96938.56;;;12.04;54.37
67397;BME280;57728;50.448;18.824;2022-11-04T10:13:43;96934.09;;;12.08;54.09
67397;BME280;57728;50.448;18.824;2022-11-04T10:18:20;96932.06;;;12.23;54.33
67397;BME280;57728;50.448;18.824;2022-11-04T10:22:58;96943.66;;;12.32;54.19
67397;BME280;57728;50.448;18.824;2022-11-04T10:25:09;96940.66;;;12.33;53.74
67397;BME280;57728;50.448;18.824;2022-11-04T10:27:25;96946.50;;;12.36;54.02
67397;BME280;57728;50.448;18.824;2022-11-04T10:29:43;96942.84;;;12.40;54.03
67397;BME280;57728;50.448;18.824;2022-11-04T10:31:47;96932.22;;;12.44;53.82
67397;BME280;57728;50.448;18.824;2022-11-04T10:33:56;96928.09;;;12.46;53.37
67397;BME280;57728;50.448;18.824;2022-11-04T10:36:09;96925.53;;;12.50;53.14
67397;BME280;57728;50.448;18.824;2022-11-04T10:38:23;96922.50;;;12.51;53.15
67397;BME280;57728;50.448;18.824;2022-11-04T10:40:40;96922.34;;;12.56;53.09
67397;BME280;57728;50.448;18.824;2022-11-04T10:42:46;96928.53;;;12.66;53.77
67397;BME280;57728;50.448;18.824;2022-11-04T10:44:50;96924.53;;;12.72;53.65
67397;BME280;57728;50.448;18.824;2022-11-04T10:52:11;96925.00;;;12.82;53.34
67397;BME280;57728;50.448;18.824;2022-11-04T10:54:12;96925.00;;;12.82;53.25
67397;BME280;57728;50.448;18.824;2022-11-04T10:56:41;96926.59;;;12.83;53.24
67397;BME280;57728;50.448;18.824;2022-11-04T10:58:47;96925.31;;;12.81;53.18
67397;BME280;57728;50.448;18.824;2022-11-04T11:00:49;96929.28;;;12.83;52.70
67397;BME280;57728;50.448;18.824;2022-11-04T11:02:52;96933.13;;;12.82;53.21
67397;BME280;57728;50.448;18.824;2022-11-04T11:07:18;96925.78;;;12.83;52.98
67397;BME280;57728;50.448;18.824;2022-11-04T11:09:26;96920.38;;;12.83;52.86
67397;BME280;57728;50.448;18.824;2022-11-04T11:13:45;96925.16;;;12.86;52.95
67397;BME280;57728;50.448;18.824;2022-11-04T11:15:47;96923.41;;;12.90;53.54
67397;BME280;57728;50.448;18.824;2022-11-04T11:17:52;96920.50;;;12.95;53.19
67397;BME280;57728;50.448;18.824;2022-11-04T11:20:24;96921.50;;;12.99;53.10
67397;BME280;57728;50.448;18.824;2022-11-04T11:24:35;96920.66;;;13.07;53.63
67397;BME280;57728;50.448;18.824;2022-11-04T11:26:37;96918.13;;;13.11;53.71
67397;BME280;57728;50.448;18.824;2022-11-04T11:28:40;96923.66;;;13.15;53.34
67397;BME280;57728;50.448;18.824;2022-11-04T11:30:59;96919.19;;;13.19;53.62
67397;BME280;57728;50.448;18.824;2022-11-04T11:35:33;96921.88;;;13.27;53.31
67397;BME280;57728;50.448;18.824;2022-11-04T11:37:45;96916.13;;;13.29;53.17
67397;BME280;57728;50.448;18.824;2022-11-04T11:39:47;96911.97;;;13.31;53.41
67397;BME280;57728;50.448;18.824;2022-11-04T11:41:57;96914.34;;;13.33;53.61
67397;BME280;57728;50.448;18.824;2022-11-04T11:44:06;96903.53;;;13.33;53.50
67397;BME280;57728;50.448;18.824;2022-11-04T11:46:26;96899.06;;;13.37;53.96
67397;BME280;57728;50.448;18.824;2022-11-04T11:50:54;96891.41;;;13.39;53.40
67397;BME280;57728;50.448;18.824;2022-11-04T11:53:17;96894.56;;;13.41;53.32
67397;BME280;57728;50.448;18.824;2022-11-04T11:55:27;96885.81;;;13.44;53.39
67397;BME280;57728;50.448;18.824;2022-11-04T12:00:14;96874.78;;;13.49;53.26
67397;BME280;57728;50.448;18.824;2022-11-04T12:02:22;96869.34;;;13.58;53.36
67397;BME280;57728;50.448;18.824;2022-11-04T12:04:36;96880.78;;;13.64;53.22
67397;BME280;57728;50.448;18.824;2022-11-04T12:12:04;96865.34;;;13.85;52.65
67397;BME280;57728;50.448;18.824;2022-11-04T12:17:28;96867.22;;;14.47;51.21
67397;BME280;57728;50.448;18.824;2022-11-04T12:22:39;96874.03;;;14.66;51.84
67397;BME280;57728;50.448;18.824;2022-11-04T12:25:01;96875.53;;;14.63;50.97
67397;BME280;57728;50.448;18.824;2022-11-04T12:27:27;96876.97;;;14.61;51.21